Time;durP1;ratioP1;P1;durP2;ratioP2;P2;SDS_P1;SDS_P2;PMS_P1;PMS_P2;Temp;Humidity;BMP_temperature;BMP_pressure;BME280_temperature;BME280_humidity;BME280_pressure;Samples;Min_cycle;Max_cycle;Signal;HPM_P1;HPM_P2
2021/01/07 00:00:09;;;;;;;0.30;0.10;;;20.50;38.60;;;;;;5054797;28;20067;-51
2021/01/07 00:02:34;;;;;;;0.75;0.20;;;20.50;38.60;;;;;;5056140;28;20017;-50
2021/01/07 00:05:00;;;;;;;0.75;0.20;;;20.50;38.60;;;;;;5057532;28;20154;-49
2021/01/07 00:07:26;;;;;;;0.50;0.30;;;20.50;38.60;;;;;;5061493;28;20052;-47
2021/01/07 00:09:51;;;;;;;0.57;0.20;;;20.50;38.70;;;;;;5066755;28;20105;-49
2021/01/07 00:12:17;;;;;;;0.52;0.20;;;20.50;38.60;;;;;;5053532;28;20051;-48
2021/01/07 00:14:42;;;;;;;0.50;0.20;;;20.40;38.60;;;;;;5057693;28;20410;-48
2021/01/07 00:17:08;;;;;;;0.68;0.20;;;20.40;38.60;;;;;;5064723;28;20028;-48
2021/01/07 00:19:34;;;;;;;1.30;0.20;;;20.40;38.60;;;;;;5060980;28;20047;-49
2021/01/07 00:21:59;;;;;;;0.70;0.22;;;20.40;38.70;;;;;;5066939;28;20502;-47
2021/01/07 00:24:25;;;;;;;0.43;0.20;;;20.40;38.70;;;;;;5049036;28;20082;-49
2021/01/07 00:26:50;;;;;;;0.55;0.30;;;20.40;38.70;;;;;;5049568;28;20029;-47
2021/01/07 00:29:16;;;;;;;0.70;0.17;;;20.30;38.60;;;;;;5048723;28;20086;-50
2021/01/07 00:31:42;;;;;;;0.52;0.28;;;20.40;38.70;;;;;;5058591;28;20025;-50
2021/01/07 00:34:07;;;;;;;0.50;0.20;;;20.30;38.70;;;;;;5056262;28;20036;-47
2021/01/07 00:36:33;;;;;;;0.65;0.20;;;20.30;38.70;;;;;;5068166;28;20032;-44
2021/01/07 00:38:59;;;;;;;1.48;0.30;;;20.30;38.70;;;;;;5067926;28;20064;-46
2021/01/07 00:41:24;;;;;;;0.50;0.20;;;20.30;38.70;;;;;;5060548;28;20051;-47
2021/01/07 00:43:50;;;;;;;0.40;0.20;;;20.30;38.70;;;;;;5048666;28;20036;-49
2021/01/07 00:46:19;;;;;;;0.68;0.20;;;20.20;38.70;;;;;;5060104;28;20025;-47
2021/01/07 00:48:48;;;;;;;0.50;0.20;;;20.20;38.70;;;;;;5051359;28;20482;-48
2021/01/07 00:51:14;;;;;;;2.22;0.30;;;20.20;38.70;;;;;;5061289;28;20159;-48
2021/01/07 00:53:40;;;;;;;0.50;0.20;;;20.20;38.60;;;;;;5051244;28;20177;-48
2021/01/07 00:56:06;;;;;;;0.50;0.20;;;20.20;38.70;;;;;;5051104;28;20709;-47
2021/01/07 00:58:31;;;;;;;0.73;0.30;;;20.20;38.70;;;;;;5059357;28;20051;-49
2021/01/07 01:00:57;;;;;;;0.60;0.30;;;20.20;38.70;;;;;;5056881;28;20105;-49
2021/01/07 01:03:23;;;;;;;0.70;0.20;;;20.20;38.70;;;;;;5063136;28;20025;-49
2021/01/07 01:05:49;;;;;;;0.70;0.20;;;20.10;38.70;;;;;;5062584;28;20389;-48
2021/01/07 01:08:16;;;;;;;0.50;0.20;;;20.10;38.70;;;;;;5065678;28;20032;-49
2021/01/07 01:10:45;;;;;;;0.30;0.10;;;20.10;38.60;;;;;;5060714;28;20390;-50
2021/01/07 01:13:11;;;;;;;0.90;0.30;;;20.10;38.60;;;;;;5066758;28;20027;-47
2021/01/07 01:15:37;;;;;;;0.50;0.20;;;20.10;38.70;;;;;;5064054;28;20033;-48
2021/01/07 01:18:04;;;;;;;1.58;0.40;;;20.10;38.70;;;;;;5069240;28;20113;-48
2021/01/07 01:20:29;;;;;;;0.50;0.20;;;20.10;38.70;;;;;;5070685;28;20029;-48
2021/01/07 01:22:55;;;;;;;0.45;0.20;;;20.00;38.60;;;;;;5063012;28;20078;-48
2021/01/07 01:25:21;;;;;;;0.90;0.30;;;20.00;38.60;;;;;;5060711;28;20025;-47
2021/01/07 01:27:46;;;;;;;0.55;0.22;;;20.00;38.70;;;;;;5054295;28;20076;-49
2021/01/07 01:30:14;;;;;;;1.05;0.50;;;20.00;38.60;;;;;;5054007;28;20550;-51
2021/01/07 01:32:41;;;;;;;0.70;0.30;;;20.00;38.70;;;;;;5056876;28;20111;-52
2021/01/07 01:35:08;;;;;;;0.50;0.20;;;20.00;38.70;;;;;;5063102;28;20119;-49
2021/01/07 01:37:37;;;;;;;0.63;0.20;;;20.00;38.80;;;;;;5055295;28;20036;-52
2021/01/07 01:40:04;;;;;;;0.50;0.20;;;19.90;38.70;;;;;;5075476;28;20032;-49
2021/01/07 01:42:30;;;;;;;0.80;0.30;;;20.00;38.80;;;;;;5065585;28;20593;-49
2021/01/07 01:44:56;;;;;;;0.70;0.30;;;19.90;38.70;;;;;;5055936;28;20025;-47
2021/01/07 01:47:22;;;;;;;1.13;0.32;;;20.00;39.30;;;;;;5058762;28;20033;-51
2021/01/07 01:49:50;;;;;;;1.05;0.60;;;20.00;38.70;;;;;;5068541;28;20047;-48
2021/01/07 01:52:16;;;;;;;0.65;0.20;;;19.90;38.70;;;;;;5068773;28;20029;-51
2021/01/07 01:54:43;;;;;;;0.80;0.40;;;19.90;38.60;;;;;;5066513;28;20493;-49
2021/01/07 01:57:12;;;;;;;0.50;0.22;;;19.90;38.60;;;;;;5058102;28;20531;-53
2021/01/07 01:59:38;;;;;;;0.85;0.20;;;19.90;38.60;;;;;;5052015;28;20032;-49
2021/01/07 02:02:09;;;;;;;0.75;0.30;;;19.90;38.70;;;;;;5059369;28;20032;-51
2021/01/07 02:04:35;;;;;;;0.98;0.20;;;19.90;38.70;;;;;;5069271;28;20524;-50
2021/01/07 02:07:03;;;;;;;1.02;0.30;;;19.90;38.70;;;;;;5062928;28;20040;-50
2021/01/07 02:09:30;;;;;;;0.70;0.30;;;19.90;38.70;;;;;;5069591;28;20490;-49
2021/01/07 02:11:58;;;;;;;0.85;0.40;;;19.90;38.70;;;;;;5070585;28;20063;-49
2021/01/07 02:14:25;;;;;;;0.60;0.43;;;19.80;38.60;;;;;;5054315;28;20443;-51
2021/01/07 02:16:51;;;;;;;0.52;0.30;;;19.80;38.70;;;;;;5070983;28;20489;-50
2021/01/07 02:19:16;;;;;;;0.77;0.20;;;19.80;38.80;;;;;;5066669;28;20040;-51
2021/01/07 02:21:42;;;;;;;0.63;0.40;;;19.70;38.80;;;;;;5067311;28;20040;-48
2021/01/07 02:24:09;;;;;;;0.68;0.30;;;19.70;38.80;;;;;;5068970;28;20035;-50
2021/01/07 02:26:35;;;;;;;0.70;0.30;;;19.70;38.80;;;;;;5056615;28;20075;-51
2021/01/07 02:29:01;;;;;;;0.93;0.28;;;19.70;38.90;;;;;;5052919;28;20082;-50
2021/01/07 02:31:26;;;;;;;0.82;0.20;;;19.60;38.90;;;;;;5059089;28;20130;-50
2021/01/07 02:33:52;;;;;;;0.70;0.30;;;19.60;38.90;;;;;;5052173;28;20036;-49
2021/01/07 02:36:17;;;;;;;0.88;0.40;;;19.60;38.90;;;;;;5053152;28;20041;-47
2021/01/07 02:38:43;;;;;;;1.50;0.60;;;19.60;38.90;;;;;;5052221;28;20081;-48
2021/01/07 02:41:10;;;;;;;1.30;0.43;;;19.60;38.90;;;;;;5056069;28;20043;-47
2021/01/07 02:43:39;;;;;;;0.50;0.20;;;19.60;38.90;;;;;;5056138;28;20548;-45
2021/01/07 02:46:05;;;;;;;0.80;0.40;;;19.50;38.90;;;;;;5060122;28;20056;-47
2021/01/07 02:48:31;;;;;;;0.82;0.50;;;19.50;38.90;;;;;;5068453;28;20400;-50
2021/01/07 02:50:56;;;;;;;0.88;0.60;;;19.50;38.90;;;;;;5065304;28;20092;-50
2021/01/07 02:53:22;;;;;;;1.00;0.60;;;19.50;39.00;;;;;;5068540;28;20033;-50
2021/01/07 02:55:48;;;;;;;1.27;0.57;;;19.50;39.00;;;;;;5065363;28;20031;-48
2021/01/07 02:58:13;;;;;;;1.00;0.40;;;19.50;39.00;;;;;;5054255;28;20032;-50
2021/01/07 03:00:39;;;;;;;1.05;0.50;;;19.40;38.90;;;;;;5070150;28;20082;-49
2021/01/07 03:03:06;;;;;;;1.13;0.57;;;19.50;39.00;;;;;;5059331;28;20033;-48
2021/01/07 03:05:32;;;;;;;0.95;0.50;;;19.40;39.00;;;;;;5067206;28;20059;-50
2021/01/07 03:07:57;;;;;;;1.60;0.50;;;19.40;39.00;;;;;;5070094;28;20036;-50
2021/01/07 03:10:23;;;;;;;1.42;0.82;;;19.40;39.00;;;;;;5069212;28;20025;-48
2021/01/07 03:12:49;;;;;;;0.80;0.43;;;19.40;39.00;;;;;;5052402;28;20098;-47
2021/01/07 03:15:14;;;;;;;1.15;0.55;;;19.40;39.10;;;;;;5052277;28;20083;-51
2021/01/07 03:17:40;;;;;;;1.15;0.60;;;19.40;39.10;;;;;;5066877;28;20035;-48
2021/01/07 03:20:15;;;;;;;0.82;0.40;;;19.40;39.00;;;;;;5064438;28;20041;-50
2021/01/07 03:22:42;;;;;;;0.98;0.50;;;19.40;39.00;;;;;;5073508;28;20085;-50
2021/01/07 03:25:09;;;;;;;1.67;0.52;;;19.40;39.00;;;;;;5068757;28;20033;-48
2021/01/07 03:27:36;;;;;;;1.17;0.60;;;19.40;39.00;;;;;;5056725;28;20028;-49
2021/01/07 03:30:03;;;;;;;1.25;0.70;;;19.40;39.00;;;;;;5060758;28;20048;-48
2021/01/07 03:32:29;;;;;;;1.33;0.45;;;19.30;39.00;;;;;;5050574;28;20025;-50
2021/01/07 03:34:54;;;;;;;0.98;0.75;;;19.30;38.90;;;;;;5046399;22;20176;-51
2021/01/07 03:37:20;;;;;;;1.13;0.60;;;19.30;38.90;;;;;;5013059;28;20056;-52
2021/01/07 03:39:46;;;;;;;1.50;0.70;;;19.30;39.00;;;;;;5015273;28;20530;-49
2021/01/07 03:42:12;;;;;;;1.67;0.90;;;19.30;39.00;;;;;;5013625;28;20042;-52
2021/01/07 03:44:37;;;;;;;1.00;0.70;;;19.30;39.00;;;;;;5014034;28;20111;-50
2021/01/07 03:47:03;;;;;;;1.73;1.00;;;19.30;39.00;;;;;;5012656;28;20026;-51
2021/01/07 03:49:29;;;;;;;1.30;0.70;;;19.30;39.00;;;;;;5015483;28;20022;-51
2021/01/07 03:51:54;;;;;;;1.25;0.95;;;19.30;39.00;;;;;;5014251;28;20033;-52
2021/01/07 03:54:20;;;;;;;1.73;1.00;;;19.30;39.00;;;;;;5013438;28;20049;-50
2021/01/07 03:56:45;;;;;;;1.67;1.25;;;19.30;39.10;;;;;;5013812;28;20112;-53
2021/01/07 03:59:11;;;;;;;1.50;1.15;;;19.30;39.00;;;;;;5014122;28;20214;-52
2021/01/07 04:01:37;;;;;;;2.67;1.05;;;19.30;39.00;;;;;;5012477;28;20036;-51
2021/01/07 04:04:02;;;;;;;1.35;0.80;;;19.30;39.00;;;;;;5009863;28;20038;-51
2021/01/07 04:06:28;;;;;;;1.10;0.70;;;19.30;39.00;;;;;;5008492;28;20112;-49
2021/01/07 04:08:53;;;;;;;1.65;1.15;;;19.30;39.00;;;;;;5009535;28;20100;-52
2021/01/07 04:11:19;;;;;;;1.50;1.00;;;19.20;39.00;;;;;;5008453;28;20030;-50
2021/01/07 04:13:45;;;;;;;2.55;1.30;;;19.20;39.00;;;;;;5008515;28;20636;-49
2021/01/07 04:16:11;;;;;;;1.67;1.30;;;19.20;39.00;;;;;;5008278;28;20537;-50
2021/01/07 04:18:37;;;;;;;1.90;1.33;;;19.20;38.70;;;;;;5008640;28;20037;-50
2021/01/07 04:21:03;;;;;;;1.20;0.95;;;19.20;38.90;;;;;;5009373;28;20409;-51
2021/01/07 04:23:28;;;;;;;2.28;1.15;;;19.20;39.00;;;;;;5007766;28;20034;-51
2021/01/07 04:25:54;;;;;;;1.45;0.63;;;19.20;39.00;;;;;;5008652;28;20026;-50
2021/01/07 04:28:19;;;;;;;1.30;1.02;;;19.20;39.00;;;;;;5009115;28;20422;-51
2021/01/07 04:30:45;;;;;;;1.80;1.00;;;19.10;39.00;;;;;;5008490;28;20061;-50
2021/01/07 04:33:12;;;;;;;1.13;1.00;;;19.10;39.00;;;;;;5009324;28;20034;-50
2021/01/07 04:35:37;;;;;;;1.35;1.00;;;19.10;39.10;;;;;;5007651;28;20057;-52
2021/01/07 04:38:03;;;;;;;2.40;0.88;;;19.10;39.10;;;;;;5008889;28;20468;-50
2021/01/07 04:40:29;;;;;;;1.35;1.15;;;19.10;39.00;;;;;;5008740;28;20041;-52
2021/01/07 04:42:55;;;;;;;2.22;1.35;;;19.10;39.00;;;;;;5008759;28;20073;-50
2021/01/07 04:45:21;;;;;;;1.13;1.00;;;19.10;39.00;;;;;;5009684;28;20033;-52
2021/01/07 04:47:50;;;;;;;1.92;1.55;;;19.10;38.90;;;;;;5011720;28;20080;-53
2021/01/07 04:50:17;;;;;;;2.83;1.20;;;19.10;38.90;;;;;;5015933;28;20034;-51
2021/01/07 04:52:43;;;;;;;1.30;1.17;;;19.10;38.90;;;;;;5017558;28;20034;-53
2021/01/07 04:55:10;;;;;;;1.50;1.17;;;19.10;38.70;;;;;;5015498;28;20104;-50
2021/01/07 04:57:36;;;;;;;1.63;1.40;;;19.00;38.80;;;;;;5009471;28;20026;-50
2021/01/07 05:00:04;;;;;;;1.55;1.45;;;19.00;38.80;;;;;;5007316;28;20092;-48
2021/01/07 05:02:30;;;;;;;1.90;1.60;;;19.00;39.00;;;;;;5007658;28;20126;-51
2021/01/07 05:04:57;;;;;;;2.13;1.50;;;19.00;38.90;;;;;;5007758;28;20084;-49
2021/01/07 05:07:23;;;;;;;1.50;1.13;;;19.00;38.90;;;;;;5008469;28;20030;-48
2021/01/07 05:10:06;;;;;;;1.92;1.20;;;19.00;38.90;;;;;;5007988;28;20033;-51
2021/01/07 05:12:32;;;;;;;1.77;1.20;;;19.00;38.90;;;;;;5002264;28;20038;-48
2021/01/07 05:14:58;;;;;;;1.88;1.42;;;19.00;38.90;;;;;;5007938;28;20032;-50
2021/01/07 05:17:23;;;;;;;2.85;1.70;;;19.00;38.90;;;;;;5008028;28;20045;-51
2021/01/07 05:19:49;;;;;;;2.20;1.63;;;19.00;38.80;;;;;;5007927;28;20048;-50
2021/01/07 05:22:15;;;;;;;1.77;1.30;;;18.90;38.80;;;;;;5009114;28;20412;-50
2021/01/07 05:24:41;;;;;;;1.65;1.30;;;18.90;38.90;;;;;;5007181;28;20037;-53
2021/01/07 05:27:17;;;;;;;1.65;1.17;;;18.90;38.80;;;;;;4991072;28;20400;-50
2021/01/07 05:29:43;;;;;;;2.63;1.30;;;18.90;38.80;;;;;;5007560;28;20133;-49
2021/01/07 05:32:10;;;;;;;1.60;1.05;;;18.90;38.80;;;;;;5007887;28;20045;-51
2021/01/07 05:34:46;;;;;;;2.10;1.58;;;18.90;38.70;;;;;;5007490;28;20042;-51
2021/01/07 05:37:16;;;;;;;1.80;1.25;;;18.90;38.70;;;;;;5004591;28;20034;-50
2021/01/07 05:39:46;;;;;;;1.92;1.67;;;18.90;38.80;;;;;;5007398;28;20107;-49
2021/01/07 05:42:12;;;;;;;2.97;1.33;;;18.90;38.80;;;;;;4989973;28;20048;-50
2021/01/07 05:44:41;;;;;;;1.92;1.27;;;18.90;38.80;;;;;;5007441;28;20033;-49
2021/01/07 05:47:07;;;;;;;3.58;1.48;;;18.90;38.70;;;;;;5007290;28;20448;-50
2021/01/07 05:49:37;;;;;;;2.60;1.55;;;18.90;38.70;;;;;;5007595;28;20037;-50
2021/01/07 05:52:07;;;;;;;1.52;1.42;;;18.90;38.70;;;;;;5007307;28;20037;-50
2021/01/07 05:54:33;;;;;;;1.83;1.33;;;18.90;38.60;;;;;;5006600;28;20042;-53
2021/01/07 05:57:04;;;;;;;2.30;1.48;;;18.90;38.80;;;;;;5006897;28;20550;-51
2021/01/07 05:59:35;;;;;;;1.70;1.52;;;18.80;38.80;;;;;;5007231;28;20454;-50
2021/01/07 06:02:04;;;;;;;1.85;1.65;;;18.80;38.80;;;;;;5007979;28;20070;-50
2021/01/07 06:04:34;;;;;;;2.45;1.83;;;18.80;38.80;;;;;;4996679;28;20054;-48
2021/01/07 06:07:00;;;;;;;2.47;1.77;;;18.80;38.70;;;;;;5011428;28;20441;-53
2021/01/07 06:09:30;;;;;;;1.92;1.25;;;18.80;38.80;;;;;;5010674;28;20026;-51
2021/01/07 06:11:59;;;;;;;2.17;1.35;;;18.80;39.50;;;;;;5011099;28;20452;-52
2021/01/07 06:14:25;;;;;;;1.90;1.45;;;18.90;38.90;;;;;;5011126;28;20112;-50
2021/01/07 06:16:56;;;;;;;1.90;1.52;;;19.00;38.80;;;;;;5010944;28;20064;-51
2021/01/07 06:19:36;;;;;;;1.30;1.13;;;19.10;38.60;;;;;;5011190;28;20040;-50
2021/01/07 06:22:08;;;;;;;2.78;1.38;;;19.20;38.40;;;;;;5008602;28;20038;-52
2021/01/07 06:24:35;;;;;;;;;;;19.40;38.20;;;;;;5010527;28;20053;-50
2021/01/07 06:27:27;;;;;;;1.48;0.95;;;19.50;38.10;;;;;;5011649;28;19909;-51
2021/01/07 06:30:02;;;;;;;1.90;1.05;;;19.60;38.00;;;;;;5002402;28;20635;-49
2021/01/07 06:32:29;;;;;;;1.98;1.52;;;19.60;37.80;;;;;;5010515;28;20029;-46
2021/01/07 06:34:57;;;;;;;2.65;1.45;;;19.70;37.70;;;;;;5009767;28;20057;-49
2021/01/07 06:37:42;;;;;;;1.70;1.23;;;19.70;37.70;;;;;;5011426;28;20108;-50
2021/01/07 06:40:10;;;;;;;1.80;1.05;;;19.70;37.70;;;;;;5010458;28;20055;-50
2021/01/07 06:42:38;;;;;;;1.38;1.10;;;19.80;37.70;;;;;;5007742;28;20038;-49
2021/01/07 06:45:05;;;;;;;1.80;1.17;;;19.80;37.70;;;;;;5010315;28;20030;-51
2021/01/07 06:47:31;;;;;;;1.55;1.30;;;19.80;37.70;;;;;;4992365;28;20058;-50
2021/01/07 06:49:58;;;;;;;3.00;0.95;;;19.80;37.60;;;;;;5010735;28;20586;-50
2021/01/07 06:52:24;;;;;;;1.70;1.27;;;19.80;37.60;;;;;;5009911;28;20038;-51
2021/01/07 06:54:54;;;;;;;1.35;0.93;;;19.90;37.70;;;;;;5009898;28;20041;-49
2021/01/07 06:57:20;;;;;;;1.40;1.10;;;19.90;37.60;;;;;;4998605;28;20526;-48
2021/01/07 07:00:04;;;;;;;1.08;0.80;;;20.00;37.60;;;;;;5009871;28;20112;-48
2021/01/07 07:02:31;;;;;;;1.20;0.80;;;19.90;37.40;;;;;;5010148;28;20495;-46
2021/01/07 07:05:03;;;;;;;1.40;1.00;;;20.00;37.50;;;;;;5009689;28;20502;-52
2021/01/07 07:07:31;;;;;;;1.73;0.90;;;20.10;37.50;;;;;;5009972;28;20033;-49
2021/01/07 07:10:16;;;;;;;1.35;1.02;;;20.10;37.50;;;;;;5009665;28;20034;-49
2021/01/07 07:12:46;;;;;;;1.50;0.80;;;20.10;37.50;;;;;;4992435;28;20034;-49
2021/01/07 07:15:12;;;;;;;1.17;0.77;;;20.10;37.50;;;;;;5008965;28;20077;-53
2021/01/07 07:17:39;;;;;;;1.67;1.15;;;20.10;37.50;;;;;;5009136;28;20085;-50
2021/01/07 07:20:09;;;;;;;2.00;1.13;;;20.20;37.60;;;;;;5010237;28;20041;-49
2021/01/07 07:22:41;;;;;;;1.50;0.98;;;20.10;37.50;;;;;;5014277;28;20073;-52
2021/01/07 07:25:08;;;;;;;1.30;1.02;;;20.20;37.50;;;;;;4990729;28;20364;-48
2021/01/07 07:28:04;;;;;;;1.83;1.17;;;20.20;37.60;;;;;;5007641;28;20518;-49
2021/01/07 07:30:33;;;;;;;1.50;1.25;;;20.10;37.70;;;;;;4992069;28;20515;-48
2021/01/07 07:33:00;;;;;;;1.52;1.13;;;20.10;37.80;;;;;;4990968;28;20114;-48
2021/01/07 07:35:27;;;;;;;1.73;1.17;;;20.00;38.00;;;;;;5009006;28;20423;-51
2021/01/07 07:37:53;;;;;;;1.60;0.77;;;20.00;38.10;;;;;;5009187;28;20034;-48
2021/01/07 07:40:33;;;;;;;1.80;1.38;;;20.00;38.20;;;;;;5009501;28;20587;-49
2021/01/07 07:42:59;;;;;;;1.80;1.13;;;20.00;38.20;;;;;;4997449;28;20030;-50
2021/01/07 07:45:26;;;;;;;1.90;1.30;;;19.90;38.20;;;;;;5009173;28;20117;-52
2021/01/07 07:47:52;;;;;;;1.52;1.20;;;19.90;38.20;;;;;;5009434;28;20030;-51
2021/01/07 07:50:24;;;;;;;2.33;1.10;;;19.90;38.20;;;;;;5009326;28;20065;-52
2021/01/07 07:52:49;;;;;;;1.92;0.98;;;19.90;38.20;;;;;;4990824;28;20041;-49
2021/01/07 07:55:15;;;;;;;2.40;1.13;;;19.80;38.20;;;;;;5009574;28;20087;-48
2021/01/07 07:57:48;;;;;;;1.73;0.70;;;19.80;38.20;;;;;;5009496;28;20038;-51
2021/01/07 08:00:15;;;;;;;2.15;1.35;;;19.70;38.00;;;;;;5005105;28;20040;-50
2021/01/07 08:02:43;;;;;;;1.48;0.95;;;19.70;38.10;;;;;;5008739;28;20741;-51
2021/01/07 08:05:09;;;;;;;2.25;0.88;;;19.70;38.30;;;;;;5005030;28;20030;-50
2021/01/07 08:07:35;;;;;;;3.10;0.95;;;19.70;38.40;;;;;;4998398;28;20049;-47
2021/01/07 08:10:05;;;;;;;1.73;0.90;;;19.70;38.50;;;;;;5003279;28;20119;-50
2021/01/07 08:12:32;;;;;;;1.73;0.98;;;19.70;38.60;;;;;;5009520;28;20037;-50
2021/01/07 08:14:57;;;;;;;2.05;0.70;;;19.60;38.50;;;;;;5008260;28;20060;-48
2021/01/07 08:17:24;;;;;;;1.25;0.93;;;19.60;38.60;;;;;;5008190;28;20021;-48
2021/01/07 08:19:50;;;;;;;1.20;1.00;;;19.60;38.70;;;;;;5008378;28;20062;-49
2021/01/07 08:22:15;;;;;;;1.80;1.08;;;19.60;38.70;;;;;;5008127;28;20063;-53
2021/01/07 08:24:41;;;;;;;1.98;1.42;;;19.60;38.60;;;;;;5007732;28;20033;-50
2021/01/07 08:27:16;;;;;;;4.03;1.20;;;19.70;38.40;;;;;;5008327;28;20026;-49
2021/01/07 08:29:45;;;;;;;1.75;1.30;;;19.80;38.30;;;;;;4996940;28;20065;-49
2021/01/07 08:32:14;;;;;;;1.35;1.20;;;19.90;38.20;;;;;;5007266;28;20033;-47
2021/01/07 08:34:40;;;;;;;1.77;1.08;;;20.00;38.10;;;;;;4992428;28;20037;-53
2021/01/07 08:37:21;;;;;;;1.40;1.10;;;20.10;38.10;;;;;;4991129;28;20040;-49
2021/01/07 08:39:48;;;;;;;1.58;1.15;;;20.20;38.00;;;;;;5007188;28;20029;-47
2021/01/07 08:42:14;;;;;;;1.83;1.30;;;20.30;38.00;;;;;;5008569;28;20034;-49
2021/01/07 08:44:40;;;;;;;1.90;1.08;;;20.30;38.00;;;;;;5007439;28;20078;-47
2021/01/07 08:47:23;;;;;;;1.70;0.80;;;20.40;38.00;;;;;;5008532;28;20045;-48
2021/01/07 08:50:10;;;;;;;1.67;1.27;;;20.40;38.00;;;;;;5009986;28;20038;-51
2021/01/07 08:52:53;;;;;;;2.03;0.95;;;20.50;38.00;;;;;;5013898;28;20040;-51
2021/01/07 08:55:20;;;;;;;2.03;1.00;;;20.60;38.10;;;;;;5011277;28;20057;-50
2021/01/07 08:57:45;;;;;;;1.98;1.10;;;20.60;38.20;;;;;;5022271;28;20045;-52
2021/01/07 09:00:18;;;;;;;1.20;1.10;;;20.60;38.30;;;;;;5023455;28;20121;-58
2021/01/07 09:02:44;;;;;;;1.90;0.77;;;20.60;38.30;;;;;;5020483;28;20065;-47
2021/01/07 09:05:10;;;;;;;2.25;1.33;;;20.60;38.30;;;;;;5006259;28;20033;-50
2021/01/07 09:07:36;;;;;;;3.38;1.67;;;20.60;38.30;;;;;;5007285;28;20078;-51
2021/01/07 09:10:01;;;;;;;1.77;1.20;;;20.60;38.30;;;;;;5005894;28;20034;-48
2021/01/07 09:12:27;;;;;;;2.42;1.23;;;20.60;38.30;;;;;;5007502;28;20061;-48
2021/01/07 09:14:57;;;;;;;1.92;1.73;;;20.60;38.30;;;;;;5007132;28;20109;-48
2021/01/07 09:17:37;;;;;;;2.17;1.00;;;20.60;38.20;;;;;;5007905;28;20038;-49
2021/01/07 09:20:11;;;;;;;1.80;1.55;;;20.60;38.20;;;;;;5008322;28;20042;-48
2021/01/07 09:22:37;;;;;;;1.88;1.48;;;20.50;38.30;;;;;;5006827;28;20030;-47
2021/01/07 09:25:04;;;;;;;2.65;1.80;;;20.50;38.30;;;;;;5007237;28;20034;-47
2021/01/07 09:27:29;;;;;;;4.00;1.95;;;20.50;38.30;;;;;;5007487;28;20101;-48
2021/01/07 09:29:55;;;;;;;1.85;1.58;;;20.50;38.40;;;;;;5008363;28;20109;-49
2021/01/07 09:32:21;;;;;;;4.75;2.40;;;20.40;38.40;;;;;;5006876;28;20045;-50
2021/01/07 09:34:47;;;;;;;1.58;1.33;;;20.40;38.50;;;;;;5006501;28;20495;-48
2021/01/07 09:37:12;;;;;;;3.70;1.60;;;20.40;38.50;;;;;;5007726;28;20406;-48
2021/01/07 09:39:38;;;;;;;3.25;1.95;;;20.40;38.50;;;;;;5009652;28;20022;-46
2021/01/07 09:42:06;;;;;;;1.90;1.70;;;20.40;38.50;;;;;;5009879;28;20038;-47
2021/01/07 09:44:32;;;;;;;1.67;1.10;;;20.30;38.60;;;;;;5009605;28;20076;-49
2021/01/07 09:46:58;;;;;;;2.75;1.67;;;20.40;38.50;;;;;;5010546;28;20100;-52
2021/01/07 09:49:25;;;;;;;5.63;1.45;;;20.50;38.40;;;;;;5009236;28;20466;-51
2021/01/07 09:51:51;;;;;;;2.13;1.55;;;20.60;38.40;;;;;;5011361;28;20065;-51
2021/01/07 09:54:17;;;;;;;2.22;1.25;;;20.60;38.50;;;;;;5013049;28;20049;-51
2021/01/07 09:56:43;;;;;;;2.42;1.83;;;20.60;38.50;;;;;;5011620;28;20036;-54
2021/01/07 09:59:09;;;;;;;3.95;1.33;;;20.60;38.50;;;;;;5012067;28;20402;-50
2021/01/07 10:01:34;;;;;;;2.40;1.17;;;20.50;38.60;;;;;;5011530;28;20071;-46
2021/01/07 10:04:00;;;;;;;3.22;1.13;;;20.60;38.80;;;;;;5011526;28;20092;-50
2021/01/07 10:06:26;;;;;;;2.50;1.35;;;20.70;38.60;;;;;;5015028;28;20077;-48
2021/01/07 10:08:52;;;;;;;3.15;1.52;;;20.90;38.40;;;;;;5012357;28;20030;-57
2021/01/07 10:11:17;;;;;;;1.60;1.50;;;20.90;38.40;;;;;;4993808;28;20025;-58
2021/01/07 10:13:43;;;;;;;2.17;1.52;;;21.10;38.30;;;;;;5024819;28;20045;-50
2021/01/07 10:16:13;;;;;;;2.60;1.40;;;21.20;38.00;;;;;;5017334;28;20398;-50
2021/01/07 10:18:39;;;;;;;3.15;1.52;;;21.30;37.90;;;;;;5011038;28;20107;-49
2021/01/07 10:21:08;;;;;;;4.03;1.63;;;21.30;37.90;;;;;;5010361;28;20034;-48
2021/01/07 10:23:35;;;;;;;3.28;1.70;;;21.40;37.90;;;;;;5010459;28;20030;-45
2021/01/07 10:26:01;;;;;;;3.60;1.85;;;21.40;37.80;;;;;;5010603;28;20046;-49
2021/01/07 10:28:27;;;;;;;2.33;1.20;;;21.40;37.80;;;;;;5008585;28;20061;-44
2021/01/07 10:30:53;;;;;;;2.92;1.60;;;21.40;37.90;;;;;;5009546;28;20025;-52
2021/01/07 10:33:20;;;;;;;3.05;1.98;;;21.40;38.00;;;;;;5014607;28;20049;-53
2021/01/07 10:35:46;;;;;;;2.15;1.52;;;21.40;38.00;;;;;;5009584;28;20435;-53
2021/01/07 10:38:16;;;;;;;2.10;1.88;;;21.40;38.10;;;;;;5006907;28;20034;-54
2021/01/07 10:40:47;;;;;;;2.28;2.08;;;21.40;38.00;;;;;;5007110;28;20457;-55
2021/01/07 10:43:13;;;;;;;1.95;1.65;;;21.40;37.90;;;;;;5009094;28;20125;-54
2021/01/07 10:45:42;;;;;;;5.53;2.42;;;21.50;37.90;;;;;;5007076;28;20105;-54
2021/01/07 10:48:13;;;;;;;3.30;2.30;;;21.50;37.80;;;;;;5009024;28;20034;-54
2021/01/07 10:50:40;;;;;;;2.40;2.10;;;21.50;37.70;;;;;;5008246;28;20060;-51
2021/01/07 10:53:35;;;;;;;2.97;1.75;;;21.60;37.70;;;;;;5007513;28;20037;-51
2021/01/07 10:56:11;;;;;;;3.75;2.65;;;21.60;37.80;;;;;;5007693;28;20511;-54
2021/01/07 10:59:07;;;;;;;2.97;2.67;;;21.60;37.70;;;;;;5007772;28;20125;-54
2021/01/07 11:01:44;;;;;;;3.08;2.72;;;21.60;37.80;;;;;;4979118;28;20038;-50
2021/01/07 11:04:16;;;;;;;2.13;1.83;;;21.60;37.80;;;;;;5008470;28;20483;-48
2021/01/07 11:07:10;;;;;;;3.40;3.10;;;21.60;37.70;;;;;;5008958;28;20514;-53
2021/01/07 11:09:38;;;;;;;2.63;2.38;;;21.60;38.00;;;;;;5006274;28;20062;-49
2021/01/07 11:12:11;;;;;;;4.13;2.70;;;21.60;38.00;;;;;;5009772;28;20442;-51
2021/01/07 11:14:49;;;;;;;2.92;2.60;;;21.50;38.10;;;;;;5011316;28;20128;-48
2021/01/07 11:17:21;;;;;;;5.18;2.83;;;21.50;38.20;;;;;;5006264;28;20030;-49
2021/01/07 11:19:49;;;;;;;2.45;2.25;;;21.50;38.30;;;;;;4990457;28;20025;-49
2021/01/07 11:22:29;;;;;;;3.03;2.28;;;21.50;38.40;;;;;;4999486;28;20041;-53
2021/01/07 11:24:57;;;;;;;2.97;2.47;;;21.50;38.50;;;;;;5008402;28;20029;-52
2021/01/07 11:27:23;;;;;;;2.35;2.13;;;21.40;38.60;;;;;;5007932;28;20052;-55
2021/01/07 11:29:50;;;;;;;3.10;2.90;;;21.40;38.90;;;;;;5009351;28;20084;-53
2021/01/07 11:32:16;;;;;;;2.15;1.83;;;21.30;38.90;;;;;;5009197;28;20654;-53
2021/01/07 11:34:43;;;;;;;3.45;2.50;;;21.30;38.90;;;;;;4991314;28;20037;-57
2021/01/07 11:37:13;;;;;;;3.10;2.33;;;21.30;39.00;;;;;;5009486;28;20503;-49
2021/01/07 11:39:56;;;;;;;2.75;2.50;;;21.30;38.90;;;;;;5007904;28;20048;-53
2021/01/07 11:42:55;;;;;;;2.15;1.88;;;21.30;39.00;;;;;;5008643;28;20038;-49
2021/01/07 11:45:31;;;;;;;5.43;2.78;;;21.30;39.00;;;;;;5006294;28;20029;-53
2021/01/07 11:48:07;;;;;;;4.68;2.80;;;21.30;39.00;;;;;;4988072;28;20030;-54
2021/01/07 11:50:36;;;;;;;3.00;2.38;;;21.20;39.00;;;;;;5007513;28;20109;-50
2021/01/07 11:53:06;;;;;;;3.30;2.22;;;21.20;39.10;;;;;;5009332;28;20045;-52
2021/01/07 11:55:36;;;;;;;2.63;2.42;;;21.20;39.10;;;;;;5036344;22;20034;-48
2021/01/07 11:58:02;;;;;;;2.92;2.28;;;21.10;39.30;;;;;;5059195;28;20029;-47
2021/01/07 12:00:28;;;;;;;2.45;2.20;;;21.10;39.40;;;;;;5068998;28;20044;-48
2021/01/07 12:02:55;;;;;;;3.17;2.40;;;21.10;39.40;;;;;;5069619;28;20033;-49
2021/01/07 12:05:24;;;;;;;2.90;2.55;;;21.00;39.40;;;;;;5069690;28;20063;-50
2021/01/07 12:08:29;;;;;;;2.00;1.90;;;21.10;39.40;;;;;;5062514;28;20058;-50
2021/01/07 12:10:58;;;;;;;2.55;2.35;;;21.00;39.50;;;;;;5060068;28;20494;-51
2021/01/07 12:13:40;;;;;;;2.30;2.10;;;21.00;39.40;;;;;;5060400;28;20537;-50
2021/01/07 12:16:08;;;;;;;;;;;21.20;39.20;;;;;;5068059;28;20044;-52
2021/01/07 12:18:33;;;;;;;1.80;1.60;;;21.30;39.10;;;;;;5068325;28;20007;-50
2021/01/07 12:21:00;;;;;;;2.20;2.00;;;21.30;39.00;;;;;;5064350;28;20123;-49
2021/01/07 12:23:27;;;;;;;2.22;1.83;;;21.40;38.90;;;;;;5065499;28;20036;-47
2021/01/07 12:25:53;;;;;;;3.25;1.83;;;21.50;38.70;;;;;;5062434;28;20071;-47
2021/01/07 12:28:19;;;;;;;2.85;1.80;;;21.60;38.60;;;;;;5060598;28;20354;-51
2021/01/07 12:30:47;;;;;;;2.47;1.63;;;21.60;38.60;;;;;;5059120;28;20059;-51
2021/01/07 12:33:42;;;;;;;2.45;1.73;;;21.70;39.20;;;;;;5057657;28;20105;-51
2021/01/07 12:36:46;;;;;;;2.15;1.90;;;21.70;38.60;;;;;;5047678;28;20037;-51
2021/01/07 12:39:50;;;;;;;1.98;1.88;;;21.70;38.40;;;;;;5071092;28;20036;-47
2021/01/07 12:42:22;;;;;;;2.25;1.63;;;21.80;38.40;;;;;;5064691;28;20063;-48
2021/01/07 12:44:49;;;;;;;1.90;1.67;;;21.80;38.40;;;;;;5063479;28;20029;-49
2021/01/07 12:47:15;;;;;;;2.13;1.83;;;21.80;38.30;;;;;;5072913;28;20416;-52
2021/01/07 12:49:44;;;;;;;3.45;1.67;;;21.80;38.50;;;;;;5072653;28;20089;-50
2021/01/07 12:52:11;;;;;;;2.17;1.70;;;21.80;38.50;;;;;;5067308;28;20024;-47
2021/01/07 12:54:37;;;;;;;2.05;1.67;;;21.80;38.60;;;;;;5071448;28;20093;-48